createdAt,value
2022-08-14T00:02:03.583Z,97886.84
2022-08-14T00:04:42.376Z,97888.19
2022-08-14T00:07:13.889Z,97881.47
2022-08-14T00:10:02.541Z,97890.53
2022-08-14T00:12:53.454Z,97889.75
2022-08-14T00:15:44.285Z,97892.31
2022-08-14T00:18:30.891Z,97888.50
2022-08-14T00:21:11.140Z,97881.41
2022-08-14T00:23:40.624Z,97870.94
2022-08-14T00:26:08.357Z,97873.28
2022-08-14T00:28:49.328Z,97873.41
2022-08-14T00:31:16.864Z,97868.31
2022-08-14T00:33:51.717Z,97859.94
2022-08-14T00:36:47.108Z,97862.47
2022-08-14T00:39:18.047Z,97858.59
2022-08-14T00:41:47.804Z,97860.19
2022-08-14T00:44:21.522Z,97858.00
2022-08-14T00:47:03.833Z,97866.19
2022-08-14T00:49:38.323Z,97861.84
2022-08-14T00:52:17.840Z,97859.91
2022-08-14T00:54:57.715Z,97863.56
2022-08-14T00:57:34.087Z,97855.91
2022-08-14T01:00:34.193Z,97850.72
2022-08-14T01:03:04.237Z,97852.66
2022-08-14T01:05:50.848Z,97853.31
2022-08-14T01:08:51.458Z,97828.66
2022-08-14T01:11:19.449Z,97846.13
2022-08-14T01:14:00.832Z,97831.41
2022-08-14T01:16:31.449Z,97836.25
2022-08-14T01:19:19.582Z,97829.09
2022-08-14T01:21:53.487Z,97833.09
2022-08-14T01:24:24.754Z,97826.75
2022-08-14T01:27:00.522Z,97824.34
2022-08-14T01:29:58.748Z,97815.44
2022-08-14T01:32:27.891Z,97812.97
2022-08-14T01:35:17.243Z,97814.22
2022-08-14T01:37:56.375Z,97813.16
2022-08-14T01:40:36.710Z,97794.72
2022-08-14T01:43:18.328Z,97800.53
2022-08-14T01:45:57.752Z,97800.56
2022-08-14T01:48:37.388Z,97793.06
2022-08-14T01:51:19.297Z,97784.16
2022-08-14T01:53:57.487Z,97787.25
2022-08-14T01:56:40.932Z,97783.44
2022-08-14T01:59:38.267Z,97781.75
2022-08-14T02:02:17.561Z,97776.81
2022-08-14T02:04:55.901Z,97774.06
2022-08-14T02:07:44.629Z,97767.22
2022-08-14T02:10:15.638Z,97762.28
2022-08-14T02:12:54.029Z,97767.81
2022-08-14T02:15:25.773Z,97764.22
2022-08-14T02:17:54.616Z,97755.63
2022-08-14T02:20:23.834Z,97757.31
2022-08-14T02:22:54.557Z,97753.78
2022-08-14T02:25:23.264Z,97755.16
2022-08-14T02:28:25.370Z,97750.19
2022-08-14T02:30:38.483Z,97741.66
2022-08-14T02:33:07.580Z,97736.66
2022-08-14T02:35:40.965Z,97735.31
2022-08-14T02:38:11.850Z,97743.31
2022-08-14T02:40:58.914Z,97744.19
2022-08-14T02:43:36.651Z,97732.91
2022-08-14T02:46:12.612Z,97741.44
2022-08-14T02:49:01.270Z,97735.94
2022-08-14T02:51:31.166Z,97736.50
2022-08-14T02:54:01.843Z,97734.59
2022-08-14T02:57:15.477Z,97727.47
2022-08-14T02:59:18.988Z,97731.88
2022-08-14T03:01:50.836Z,97726.34
2022-08-14T03:04:22.738Z,97714.22
2022-08-14T03:07:06.552Z,97719.25
2022-08-14T03:10:26.129Z,97729.41
2022-08-14T03:12:32.364Z,97721.19
2022-08-14T03:15:14.352Z,97720.63
2022-08-14T03:17:57.613Z,97712.09
2022-08-14T03:20:30.262Z,97716.47
2022-08-14T03:23:03.083Z,97713.19
2022-08-14T03:25:37.634Z,97702.47
2022-08-14T03:28:14.324Z,97703.84
2022-08-14T03:31:00.414Z,97701.06
2022-08-14T03:33:37.402Z,97695.31
2022-08-14T03:37:28.621Z,97699.97
2022-08-14T03:39:15.115Z,97704.34
2022-08-14T03:41:55.036Z,97700.56
2022-08-14T03:45:19.340Z,97703.59
2022-08-14T03:47:12.204Z,97715.16
2022-08-14T03:49:49.623Z,97716.25
2022-08-14T03:52:39.056Z,97716.25
2022-08-14T03:55:12.457Z,97715.72
2022-08-14T03:57:41.102Z,97710.22
2022-08-14T04:00:44.313Z,97707.19
2022-08-14T04:03:05.560Z,97718.47
2022-08-14T04:05:43.475Z,97709.66
2022-08-14T04:08:29.502Z,97711.31
2022-08-14T04:11:01.831Z,97704.69
2022-08-14T04:13:37.039Z,97715.44
2022-08-14T04:16:22.932Z,97719.03
2022-08-14T04:18:58.305Z,97727.56
2022-08-14T04:21:29.491Z,97739.94
2022-08-14T04:24:01.893Z,97735.25
2022-08-14T04:26:42.427Z,97731.97
2022-08-14T04:29:15.337Z,97733.09
2022-08-14T04:32:59.323Z,97734.44
2022-08-14T04:34:33.914Z,97735.25
2022-08-14T04:37:24.818Z,97750.13
2022-08-14T04:40:15.158Z,97753.44
2022-08-14T04:43:02.048Z,97745.19
2022-08-14T04:45:38.657Z,97747.38
2022-08-14T04:48:39.460Z,97743.22
2022-08-14T04:51:15.981Z,97727.00
2022-08-14T04:53:49.042Z,97715.44
2022-08-14T04:56:31.412Z,97714.91
2022-08-14T04:59:10.301Z,97717.38
2022-08-14T05:01:50.067Z,97727.84
2022-08-14T05:04:23.030Z,97712.41
2022-08-14T05:06:55.235Z,97698.13
2022-08-14T05:09:28.991Z,97698.13
2022-08-14T05:13:10.786Z,97693.16
2022-08-14T05:14:53.715Z,97680.50
2022-08-14T05:17:31.847Z,97670.31
2022-08-14T05:21:10.992Z,97673.91
2022-08-14T05:23:01.266Z,97664.84
2022-08-14T05:25:30.658Z,97671.69
2022-08-14T05:28:10.946Z,97676.66
2022-08-14T05:30:43.665Z,97661.00
2022-08-14T05:33:12.869Z,97650.53
2022-08-14T05:35:42.501Z,97643.94
2022-08-14T05:38:30.701Z,97650.25
2022-08-14T05:40:59.746Z,97654.63
2022-08-14T05:43:40.726Z,97645.03
2022-08-14T05:46:15.684Z,97641.97
2022-08-14T05:48:43.994Z,97641.41
2022-08-14T05:51:13.491Z,97638.69
2022-08-14T05:53:42.470Z,97629.56
2022-08-14T05:56:11.133Z,97627.13
2022-08-14T05:58:41.440Z,97629.81
2022-08-14T06:01:10.233Z,97629.31
2022-08-14T06:03:40.177Z,97632.59
2022-08-14T06:06:08.390Z,97632.03
2022-08-14T06:08:41.650Z,97633.41
2022-08-14T06:11:10.503Z,97621.28
2022-08-14T06:13:45.729Z,97633.66
2022-08-14T06:16:18.801Z,97639.41
2022-08-14T06:18:52.332Z,97627.88
2022-08-14T06:21:22.915Z,97628.13
2022-08-14T06:23:52.141Z,97630.91
2022-08-14T06:26:20.759Z,97633.03
2022-08-14T06:28:52.131Z,97633.53
2022-08-14T06:31:21.418Z,97620.31
2022-08-14T06:35:03.398Z,97631.28
2022-08-14T06:36:39.198Z,97636.25
2022-08-14T06:39:10.308Z,97632.91
2022-08-14T06:41:58.411Z,97637.25
2022-08-14T06:44:32.325Z,97645.50
2022-08-14T06:47:03.497Z,97651.50
2022-08-14T06:49:42.732Z,97651.41
2022-08-14T06:52:15.334Z,97643.66
2022-08-14T06:54:45.670Z,97652.97
2022-08-14T06:57:13.924Z,97658.66
2022-08-14T06:59:43.388Z,97657.81
2022-08-14T07:02:29.971Z,97669.63
2022-08-14T07:05:20.848Z,97676.50
2022-08-14T07:07:52.111Z,97679.00
2022-08-14T07:10:24.757Z,97682.34
2022-08-14T07:13:03.689Z,97689.22
2022-08-14T07:15:42.092Z,97672.31
2022-08-14T07:18:12.205Z,97633.97
2022-08-14T07:20:42.328Z,97625.56
2022-08-14T07:23:20.889Z,97633.75
2022-08-14T07:25:53.388Z,97645.28
2022-08-14T07:28:43.101Z,97641.59
2022-08-14T07:31:13.131Z,97668.25
2022-08-14T07:33:51.578Z,97657.72
2022-08-14T07:36:26.411Z,97652.59
2022-08-14T07:38:58.534Z,97652.03
2022-08-14T07:41:31.378Z,97659.13
2022-08-14T07:44:29.095Z,97664.50
2022-08-14T07:46:50.378Z,97650.53
2022-08-14T07:49:19.868Z,97656.56
2022-08-14T07:51:49.351Z,97662.81
2022-08-14T07:54:22.810Z,97655.72
2022-08-14T07:57:12.143Z,97660.31
2022-08-14T07:59:44.455Z,97660.03
2022-08-14T08:02:20.254Z,97667.66
2022-08-14T08:04:59.145Z,97664.00
2022-08-14T08:07:32.081Z,97664.97
2022-08-14T08:10:46.826Z,97655.09
2022-08-14T08:13:22.309Z,97663.31
2022-08-14T08:15:57.327Z,97661.66
2022-08-14T08:18:29.617Z,97652.94
2022-08-14T08:21:00.274Z,97637.50
2022-08-14T08:23:39.820Z,97647.00
2022-08-14T08:26:11.024Z,97638.13
2022-08-14T08:28:38.356Z,97619.22
2022-08-14T08:31:12.681Z,97635.97
2022-08-14T08:33:43.560Z,97639.38
2022-08-14T08:36:18.764Z,97618.41
2022-08-14T08:39:16.330Z,97622.88
2022-08-14T08:41:55.763Z,97614.22
2022-08-14T08:44:34.295Z,97620.91
2022-08-14T08:47:07.892Z,97623.06
2022-08-14T08:49:48.310Z,97625.94
2022-08-14T08:52:30.890Z,97638.91
2022-08-14T08:55:04.325Z,97634.19
2022-08-14T08:57:37.880Z,97635.50
2022-08-14T09:00:25.554Z,97634.25
2022-08-14T09:03:11.677Z,97632.72
2022-08-14T09:06:56.968Z,97630.34
2022-08-14T09:08:53.907Z,97622.59
2022-08-14T09:11:24.461Z,97630.78
2022-08-14T09:13:54.590Z,97628.69
2022-08-14T09:16:26.169Z,97621.63
2022-08-14T09:18:55.193Z,97616.22
2022-08-14T09:21:23.767Z,97619.66
2022-08-14T09:24:26.181Z,97609.56
2022-08-14T09:26:49.274Z,97609.81
2022-08-14T09:29:22.872Z,97613.88
2022-08-14T09:31:58.884Z,97606.72
2022-08-14T09:35:41.190Z,97599.38
2022-08-14T09:38:56.487Z,97604.91
2022-08-14T09:42:33.626Z,97612.44
2022-08-14T09:45:20.849Z,97611.78
2022-08-14T09:47:57.304Z,97604.75
2022-08-14T09:50:48.341Z,97596.41
2022-08-14T09:54:19.164Z,97594.41
2022-08-14T09:56:51.708Z,97601.34
2022-08-14T09:59:28.250Z,97588.13
2022-08-14T10:01:59.798Z,97594.81
2022-08-14T10:04:33.395Z,97587.91
2022-08-14T10:07:05.833Z,97581.25
2022-08-14T10:09:35.475Z,97582.25
2022-08-14T10:12:18.751Z,97579.31
2022-08-14T10:14:53.353Z,97577.22
2022-08-14T10:17:27.504Z,97574.28
2022-08-14T10:19:58.200Z,97574.66
2022-08-14T10:23:22.233Z,97579.25
2022-08-14T10:25:19.749Z,97570.28
2022-08-14T10:27:59.002Z,97578.28
2022-08-14T10:30:37.119Z,97569.44
2022-08-14T10:33:05.012Z,97579.75
2022-08-14T10:35:47.974Z,97575.66
2022-08-14T10:38:27.805Z,97572.22
2022-08-14T10:40:59.355Z,97571.25
2022-08-14T10:43:31.644Z,97576.31
2022-08-14T10:46:21.689Z,97574.22
2022-08-14T10:49:26.597Z,97576.81
2022-08-14T10:52:21.962Z,97575.31
2022-08-14T10:54:50.618Z,97580.75
2022-08-14T10:57:28.188Z,97580.41
2022-08-14T11:00:20.645Z,97573.53
2022-08-14T11:03:09.684Z,97588.13
2022-08-14T11:05:55.614Z,97591.06
2022-08-14T11:08:34.331Z,97585.16
2022-08-14T11:11:06.117Z,97588.78
2022-08-14T11:13:34.552Z,97580.41
2022-08-14T11:16:03.750Z,97583.53
2022-08-14T11:18:37.006Z,97584.19
2022-08-14T11:21:09.668Z,97602.69
2022-08-14T11:23:41.327Z,97590.25
2022-08-14T11:26:16.437Z,97591.91
2022-08-14T11:28:48.612Z,97589.25
2022-08-14T11:31:24.127Z,97593.66
2022-08-14T11:33:57.897Z,97601.06
2022-08-14T11:37:02.029Z,97598.75
2022-08-14T11:39:34.987Z,97597.94
2022-08-14T11:42:57.913Z,97602.69
2022-08-14T11:45:04.218Z,97605.66
2022-08-14T11:48:10.597Z,97603.03
2022-08-14T11:50:36.879Z,97610.22
2022-08-14T11:53:42.120Z,97598.75
2022-08-14T11:56:11.105Z,97606.28
2022-08-14T11:58:40.152Z,97604.81
2022-08-14T12:01:10.559Z,97617.44
2022-08-14T12:03:52.081Z,97593.84
2022-08-14T12:06:28.721Z,97608.28
2022-08-14T12:09:08.886Z,97604.59
2022-08-14T12:11:47.254Z,97606.94
2022-08-14T12:14:34.842Z,97628.72
2022-08-14T12:17:12.277Z,97620.94
2022-08-14T12:19:56.541Z,97618.47
2022-08-14T12:22:43.974Z,97619.94
2022-08-14T12:25:30.527Z,97629.69
2022-08-14T12:28:27.448Z,97632.59
2022-08-14T12:31:00.488Z,97626.53
2022-08-14T12:33:34.448Z,97645.09
2022-08-14T12:36:20.690Z,97634.75
2022-08-14T12:38:54.165Z,97639.59
2022-08-14T12:41:29.019Z,97635.16
2022-08-14T12:44:08.320Z,97643.00
2022-08-14T12:46:43.619Z,97640.16
2022-08-14T12:49:18.728Z,97639.94
2022-08-14T12:52:01.019Z,97630.09
2022-08-14T12:54:32.415Z,97631.88
2022-08-14T12:57:20.195Z,97634.56
2022-08-14T12:59:49.487Z,97628.47
2022-08-14T13:02:27.178Z,97620.53
2022-08-14T13:04:58.506Z,97625.94
2022-08-14T13:07:32.512Z,97626.00
2022-08-14T13:10:12.865Z,97608.97
2022-08-14T13:13:15.495Z,97602.94
2022-08-14T13:15:47.672Z,97610.09
2022-08-14T13:18:17.064Z,97613.03
2022-08-14T13:20:51.374Z,97608.94
2022-08-14T13:23:31.823Z,97596.47
2022-08-14T13:26:01.152Z,97595.56
2022-08-14T13:28:34.135Z,97592.25
2022-08-14T13:31:11.441Z,97592.78
2022-08-14T13:33:41.251Z,97589.59
2022-08-14T13:36:11.113Z,97588.56
2022-08-14T13:38:55.095Z,97576.53
2022-08-14T13:41:31.796Z,97577.16
2022-08-14T13:44:04.829Z,97564.03
2022-08-14T13:46:35.273Z,97565.75
2022-08-14T13:49:02.611Z,97569.75
2022-08-14T13:51:37.610Z,97573.00
2022-08-14T13:54:10.467Z,97578.63
2022-08-14T13:56:42.145Z,97575.47
2022-08-14T13:59:10.695Z,97566.50
2022-08-14T14:01:43.312Z,97558.56
2022-08-14T14:04:23.253Z,97556.44
2022-08-14T14:06:52.208Z,97558.16
2022-08-14T14:09:32.577Z,97552.63
2022-08-14T14:12:49.206Z,97539.78
2022-08-14T14:15:05.268Z,97544.28
2022-08-14T14:17:36.813Z,97531.03
2022-08-14T14:20:15.135Z,97525.06
2022-08-14T14:23:01.573Z,97521.59
2022-08-14T14:25:38.639Z,97524.91
2022-08-14T14:28:24.563Z,97519.72
2022-08-14T14:30:57.190Z,97524.53
2022-08-14T14:33:47.666Z,97530.66
2022-08-14T14:36:26.572Z,97529.28
2022-08-14T14:39:07.292Z,97521.88
2022-08-14T14:41:43.517Z,97521.81
2022-08-14T14:44:16.035Z,97522.59
2022-08-14T14:46:53.041Z,97533.22
2022-08-14T14:49:31.761Z,97542.19
2022-08-14T14:52:23.296Z,97544.44
2022-08-14T14:55:00.232Z,97543.47
2022-08-14T14:57:35.259Z,97542.06
2022-08-14T15:00:12.594Z,97551.06
2022-08-14T15:02:48.089Z,97555.66
2022-08-14T15:05:22.605Z,97559.75
2022-08-14T15:07:52.814Z,97552.25
2022-08-14T15:10:27.862Z,97553.06
2022-08-14T15:13:04.150Z,97558.25
2022-08-14T15:15:37.263Z,97559.28
2022-08-14T15:18:35.903Z,97562.47
2022-08-14T15:20:58.972Z,97556.44
2022-08-14T15:23:43.514Z,97556.13
2022-08-14T15:26:24.454Z,97555.91
2022-08-14T15:29:06.093Z,97560.09
2022-08-14T15:31:37.145Z,97553.38
2022-08-14T15:34:44.794Z,97550.75
2022-08-14T15:37:00.228Z,97541.03
2022-08-14T15:39:29.408Z,97535.09
2022-08-14T15:42:02.986Z,97543.91
2022-08-14T15:44:36.600Z,97550.53
2022-08-14T15:47:11.488Z,97550.88
2022-08-14T15:49:39.813Z,97544.59
2022-08-14T15:52:08.116Z,97546.94
2022-08-14T15:54:38.648Z,97545.94
2022-08-14T15:57:10.283Z,97545.50
2022-08-14T16:00:39.962Z,97553.00
2022-08-14T16:02:58.841Z,97550.06
2022-08-14T16:05:28.004Z,97547.91
2022-08-14T16:08:28.852Z,97540.28
2022-08-14T16:11:09.424Z,97536.81
2022-08-14T16:13:42.960Z,97548.88
2022-08-14T16:16:34.769Z,97556.72
2022-08-14T16:19:21.079Z,97546.78
2022-08-14T16:22:01.376Z,97540.97
2022-08-14T16:25:01.929Z,97537.94
2022-08-14T16:30:21.023Z,97546.47
2022-08-14T16:32:59.793Z,97533.13
2022-08-14T16:35:42.245Z,97538.00
2022-08-14T16:38:47.940Z,97537.56
2022-08-14T16:41:17.034Z,97538.94
2022-08-14T16:43:46.432Z,97528.03
2022-08-14T16:46:22.315Z,97516.31
2022-08-14T16:48:55.298Z,97524.13
2022-08-14T16:51:29.566Z,97525.56
2022-08-14T16:54:00.607Z,97531.31
2022-08-14T16:56:36.456Z,97534.28
2022-08-14T16:59:20.013Z,97538.41
2022-08-14T17:02:01.105Z,97533.19
2022-08-14T17:04:35.453Z,97529.53
2022-08-14T17:07:14.027Z,97527.69
2022-08-14T17:09:49.180Z,97531.16
2022-08-14T17:12:35.196Z,97528.31
2022-08-14T17:15:14.987Z,97523.38
2022-08-14T17:17:58.408Z,97516.88
2022-08-14T17:20:53.207Z,97510.94
2022-08-14T17:23:15.225Z,97519.25
2022-08-14T17:28:51.362Z,97519.72
2022-08-14T17:31:18.461Z,97510.22
2022-08-14T17:33:51.811Z,97521.53
2022-08-14T17:36:24.676Z,97518.88
2022-08-14T17:39:17.606Z,97525.81
2022-08-14T17:42:03.206Z,97524.81
2022-08-14T17:44:46.059Z,97524.63
2022-08-14T17:47:18.391Z,97511.75
2022-08-14T17:49:51.821Z,97513.16
2022-08-14T17:52:34.904Z,97520.22
2022-08-14T17:55:12.524Z,97521.00
2022-08-14T17:57:59.889Z,97524.47
2022-08-14T18:00:28.557Z,97526.22
2022-08-14T18:02:58.953Z,97521.19
2022-08-14T18:06:07.634Z,97524.66
2022-08-14T18:08:33.138Z,97510.00
2022-08-14T18:11:03.299Z,97509.09
2022-08-14T18:13:51.840Z,97511.81
2022-08-14T18:16:20.303Z,97510.34
2022-08-14T18:18:51.540Z,97516.69
2022-08-14T18:21:42.678Z,97529.41
2022-08-14T18:24:28.736Z,97520.09
2022-08-14T18:27:23.472Z,97522.41
2022-08-14T18:29:59.852Z,97522.97
2022-08-14T18:32:59.093Z,97520.59
2022-08-14T18:35:58.054Z,97519.25
2022-08-14T18:38:45.852Z,97523.34
2022-08-14T18:41:36.757Z,97529.41
2022-08-14T18:44:10.716Z,97523.16
2022-08-14T18:47:10.188Z,97523.31
2022-08-14T18:49:57.969Z,97535.25
2022-08-14T18:52:36.368Z,97534.63
2022-08-14T18:55:16.048Z,97538.13
2022-08-14T18:57:59.733Z,97529.91
2022-08-14T19:00:32.773Z,97524.75
2022-08-14T19:03:39.253Z,97534.66
2022-08-14T19:06:11.208Z,97530.75
2022-08-14T19:08:50.150Z,97534.97
2022-08-14T19:11:34.210Z,97538.34
2022-08-14T19:14:07.173Z,97542.03
2022-08-14T19:16:42.762Z,97547.59
2022-08-14T19:19:13.974Z,97563.44
2022-08-14T19:21:56.048Z,97553.34
2022-08-14T19:24:45.207Z,97554.00
2022-08-14T19:27:26.429Z,97555.91
2022-08-14T19:30:21.318Z,97553.38
2022-08-14T19:32:57.026Z,97538.78
2022-08-14T19:35:43.575Z,97555.22
2022-08-14T19:38:59.289Z,97547.94
2022-08-14T19:41:34.336Z,97538.56
2022-08-14T19:44:19.502Z,97546.97
2022-08-14T19:47:02.599Z,97545.97
2022-08-14T19:50:24.593Z,97548.47
2022-08-14T19:52:39.573Z,97547.06
2022-08-14T19:55:34.475Z,97556.13
2022-08-14T19:58:07.475Z,97562.81
2022-08-14T20:00:52.068Z,97565.88
2022-08-14T20:03:23.295Z,97555.53
2022-08-14T20:06:05.666Z,97557.66
2022-08-14T20:10:59.724Z,97547.19
2022-08-14T20:11:42.951Z,97565.03
2022-08-14T20:14:28.004Z,97558.28
2022-08-14T20:17:05.455Z,97560.94
2022-08-14T20:19:37.845Z,97569.69
2022-08-14T20:22:35.614Z,97573.91
2022-08-14T20:25:22.896Z,97562.59
2022-08-14T20:27:59.508Z,97561.03
2022-08-14T20:30:34.822Z,97559.50
2022-08-14T20:33:11.208Z,97564.44
2022-08-14T20:35:50.755Z,97559.94
2022-08-14T20:38:29.633Z,97547.97
2022-08-14T20:41:12.353Z,97550.66
2022-08-14T20:44:02.881Z,97552.00
2022-08-14T20:46:42.291Z,97558.34
2022-08-14T20:49:19.290Z,97559.25
2022-08-14T20:51:58.668Z,97551.91
2022-08-14T20:54:34.305Z,97558.44
2022-08-14T20:57:17.842Z,97566.19
2022-08-14T20:59:53.575Z,97566.72
2022-08-14T21:02:46.843Z,97556.97
2022-08-14T21:05:33.301Z,97558.50
2022-08-14T21:08:09.720Z,97552.44
2022-08-14T21:10:56.756Z,97563.88
2022-08-14T21:14:25.057Z,97561.44
2022-08-14T21:16:33.065Z,97558.41
2022-08-14T21:19:04.013Z,97555.78
2022-08-14T21:21:41.343Z,97565.16
2022-08-14T21:24:38.691Z,97558.66
2022-08-14T21:27:19.754Z,97567.47
2022-08-14T21:29:55.505Z,97569.34
2022-08-14T21:32:35.107Z,97591.09
2022-08-14T21:35:08.951Z,97584.16
2022-08-14T21:37:47.499Z,97589.09
2022-08-14T21:40:41.537Z,97591.25
2022-08-14T21:43:17.198Z,97620.03
2022-08-14T21:45:59.086Z,97630.97
2022-08-14T21:48:32.334Z,97619.53
2022-08-14T21:51:53.783Z,97636.84
2022-08-14T21:53:59.653Z,97630.06
2022-08-14T21:56:39.565Z,97641.59
2022-08-14T21:59:28.957Z,97646.69
2022-08-14T22:02:03.619Z,97652.19
2022-08-14T22:04:41.475Z,97665.38
2022-08-14T22:07:17.086Z,97665.91
2022-08-14T22:09:55.405Z,97683.56
2022-08-14T22:12:45.437Z,97661.00
2022-08-14T22:15:18.837Z,97695.84
2022-08-14T22:17:54.641Z,97650.28
2022-08-14T22:20:28.047Z,97703.56
2022-08-14T22:23:04.264Z,97677.53
2022-08-14T22:25:41.122Z,97679.41
2022-08-14T22:28:22.573Z,97717.78
2022-08-14T22:30:55.052Z,97716.56
2022-08-14T22:33:30.936Z,97723.28
2022-08-14T22:36:25.625Z,97719.22
2022-08-14T22:38:56.282Z,97736.84
2022-08-14T22:41:28.325Z,97731.13
2022-08-14T22:44:16.566Z,97715.16
2022-08-14T22:46:45.321Z,97726.81
2022-08-14T22:49:16.646Z,97722.03
2022-08-14T22:52:32.977Z,97718.75
2022-08-14T22:54:55.524Z,97708.38
2022-08-14T22:57:38.222Z,97704.50
2022-08-14T23:00:25.641Z,97698.69
2022-08-14T23:03:04.017Z,97690.16
2022-08-14T23:05:39.769Z,97679.09
2022-08-14T23:08:57.900Z,97669.50
2022-08-14T23:11:00.494Z,97662.84
2022-08-14T23:13:30.948Z,97677.78
2022-08-14T23:15:59.938Z,97666.91
2022-08-14T23:18:29.778Z,97658.56
2022-08-14T23:20:57.951Z,97662.59
2022-08-14T23:23:26.353Z,97657.72
2022-08-14T23:25:59.854Z,97665.06
2022-08-14T23:28:34.255Z,97643.69
2022-08-14T23:31:34.676Z,97648.91
2022-08-14T23:34:20.665Z,97649.16
2022-08-14T23:36:56.320Z,97639.78
2022-08-14T23:39:34.543Z,97648.91
2022-08-14T23:42:11.489Z,97640.16
2022-08-14T23:44:40.373Z,97632.97
2022-08-14T23:47:26.123Z,97626.94
2022-08-14T23:50:00.475Z,97629.38
2022-08-14T23:52:56.391Z,97639.06
2022-08-14T23:55:32.193Z,97643.47
2022-08-14T23:58:00.723Z,97642.63
